Time;durP1;ratioP1;P1;durP2;ratioP2;P2;SDS_P1;SDS_P2;PMS_P1;PMS_P2;Temp;Humidity;BMP_temperature;BMP_pressure;BME280_temperature;BME280_humidity;BME280_pressure;Samples;Min_cycle;Max_cycle;Signal;HPM_P1;HPM_P2
2023/04/06 00:01:49;;;;;;;9.98;4.65;;;10.80;99.90;;;;;;5114013;28;20026;-67
2023/04/06 00:04:16;;;;;;;11.48;4.75;;;10.70;99.90;;;;;;5113759;28;20042;-65
2023/04/06 00:06:42;;;;;;;9.48;4.30;;;10.70;99.90;;;;;;5113859;28;20093;-65
2023/04/06 00:09:08;;;;;;;8.00;4.60;;;10.70;99.90;;;;;;5113698;28;20035;-65
2023/04/06 00:11:33;;;;;;;11.43;5.05;;;10.60;99.90;;;;;;5113233;28;20038;-65
2023/04/06 00:14:01;;;;;;;11.27;4.72;;;10.70;99.90;;;;;;5114058;28;20531;-65
2023/04/06 00:16:27;;;;;;;10.68;4.55;;;10.60;99.90;;;;;;5113677;28;20030;-65
2023/04/06 00:18:53;;;;;;;7.65;4.40;;;10.60;99.90;;;;;;5113607;28;20023;-65
2023/04/06 00:21:19;;;;;;;8.38;4.60;;;10.70;99.90;;;;;;5113752;28;20103;-65
2023/04/06 00:23:45;;;;;;;8.57;4.65;;;10.60;99.90;;;;;;5113439;28;20541;-63
2023/04/06 00:26:10;;;;;;;8.20;4.22;;;10.60;99.90;;;;;;5112692;28;20508;-66
2023/04/06 00:28:37;;;;;;;9.02;4.53;;;10.50;99.90;;;;;;5113481;28;20020;-65
2023/04/06 00:31:03;;;;;;;9.85;4.70;;;10.60;99.90;;;;;;5113552;28;20023;-65
2023/04/06 00:33:29;;;;;;;8.95;4.57;;;10.50;99.90;;;;;;5113271;28;20170;-65
2023/04/06 00:35:55;;;;;;;10.02;5.25;;;10.60;99.90;;;;;;5113569;28;20043;-65
2023/04/06 00:38:21;;;;;;;10.55;5.28;;;10.60;99.90;;;;;;5112958;28;20510;-65
2023/04/06 00:40:47;;;;;;;10.82;6.10;;;10.60;99.90;;;;;;5112791;28;20055;-65
2023/04/06 00:43:13;;;;;;;8.82;5.72;;;10.70;99.90;;;;;;5113063;28;20054;-65
2023/04/06 00:45:40;;;;;;;10.45;5.38;;;10.60;99.90;;;;;;5113096;28;20452;-65
2023/04/06 00:48:06;;;;;;;10.48;5.28;;;10.50;99.90;;;;;;5113323;28;20019;-65
2023/04/06 00:50:32;;;;;;;11.23;5.72;;;10.40;99.90;;;;;;5113085;28;20019;-64
2023/04/06 00:52:59;;;;;;;14.43;5.68;;;10.40;99.90;;;;;;5112854;28;20133;-65
2023/04/06 00:55:26;;;;;;;8.80;5.15;;;10.50;99.90;;;;;;5112115;28;20395;-65
2023/04/06 00:57:52;;;;;;;12.27;5.60;;;10.40;99.90;;;;;;5112974;28;20027;-65
2023/04/06 01:00:18;;;;;;;9.73;5.63;;;10.40;99.90;;;;;;5112974;28;20086;-65
2023/04/06 01:02:45;;;;;;;12.70;5.95;;;10.40;99.90;;;;;;5112878;28;20432;-65
2023/04/06 01:05:11;;;;;;;12.07;5.68;;;10.50;99.90;;;;;;5113146;28;20035;-65
2023/04/06 01:07:36;;;;;;;9.32;5.95;;;10.50;99.90;;;;;;5112696;28;20050;-65
2023/04/06 01:10:03;;;;;;;7.97;5.50;;;10.40;99.90;;;;;;5094083;28;20024;-66
2023/04/06 01:12:29;;;;;;;8.98;5.43;;;10.40;99.90;;;;;;5094308;28;20467;-65
2023/04/06 01:14:55;;;;;;;10.25;5.70;;;10.30;99.90;;;;;;5113008;28;20103;-65
2023/04/06 01:17:21;;;;;;;8.25;5.80;;;10.30;99.90;;;;;;5112640;28;20102;-63
2023/04/06 01:19:49;;;;;;;9.05;5.85;;;10.20;99.90;;;;;;5112526;28;20059;-64
2023/04/06 01:22:18;;;;;;;11.65;5.80;;;10.10;99.90;;;;;;5112461;28;20020;-66
2023/04/06 01:24:44;;;;;;;10.82;6.20;;;10.20;99.90;;;;;;5111842;28;20036;-66
2023/04/06 01:27:10;;;;;;;12.02;5.70;;;10.20;99.90;;;;;;5112850;28;20035;-66
2023/04/06 01:29:36;;;;;;;11.23;5.32;;;10.10;99.90;;;;;;5112557;28;20102;-65
2023/04/06 01:32:02;;;;;;;9.27;6.18;;;10.10;99.90;;;;;;5112366;28;20019;-65
2023/04/06 01:34:28;;;;;;;14.65;6.63;;;10.10;99.90;;;;;;5112605;28;20024;-65
2023/04/06 01:36:54;;;;;;;8.27;5.80;;;10.10;99.90;;;;;;5112593;28;20023;-65
2023/04/06 01:39:20;;;;;;;11.57;6.13;;;10.10;99.90;;;;;;5111930;28;20110;-64
2023/04/06 01:41:47;;;;;;;12.15;6.20;;;10.20;99.90;;;;;;5112501;28;20027;-65
2023/04/06 01:44:14;;;;;;;8.73;5.63;;;10.20;99.90;;;;;;5112247;28;20407;-65
2023/04/06 01:46:40;;;;;;;10.30;5.25;;;10.10;99.90;;;;;;5112238;28;20036;-64
2023/04/06 01:49:06;;;;;;;8.07;5.95;;;10.00;99.90;;;;;;5112699;28;20024;-65
2023/04/06 01:51:31;;;;;;;9.20;5.68;;;10.10;99.90;;;;;;5112296;28;20051;-63
2023/04/06 01:53:57;;;;;;;8.77;5.70;;;10.10;99.90;;;;;;5112396;28;20479;-65
2023/04/06 01:56:24;;;;;;;10.63;6.00;;;10.00;99.90;;;;;;5112093;28;20024;-64
2023/04/06 01:58:50;;;;;;;9.38;5.80;;;10.00;99.90;;;;;;5112302;28;20031;-65
2023/04/06 02:01:15;;;;;;;11.70;5.97;;;10.00;99.90;;;;;;5112202;28;20392;-65
2023/04/06 02:03:41;;;;;;;10.38;5.97;;;9.90;99.90;;;;;;5112177;28;20019;-65
2023/04/06 02:06:07;;;;;;;10.30;5.55;;;9.90;99.90;;;;;;5111946;28;20392;-65
2023/04/06 02:08:32;;;;;;;11.60;5.72;;;9.80;99.90;;;;;;5114222;28;20020;-65
2023/04/06 02:10:58;;;;;;;8.52;6.00;;;9.90;99.90;;;;;;5116194;28;20564;-65
2023/04/06 02:13:24;;;;;;;11.32;5.75;;;9.90;99.90;;;;;;5116091;28;20498;-65
2023/04/06 02:15:50;;;;;;;8.95;5.80;;;9.80;99.90;;;;;;5115985;28;20110;-65
2023/04/06 02:18:17;;;;;;;9.90;5.55;;;9.70;99.90;;;;;;5097788;28;20047;-65
2023/04/06 02:20:43;;;;;;;8.20;5.47;;;9.70;99.90;;;;;;5115743;28;20023;-65
2023/04/06 02:23:08;;;;;;;11.73;5.82;;;9.60;99.90;;;;;;5115458;28;20024;-66
2023/04/06 02:25:34;;;;;;;7.88;5.60;;;9.60;99.90;;;;;;5115485;28;20407;-63
2023/04/06 02:28:00;;;;;;;12.93;5.78;;;9.60;99.90;;;;;;5115810;28;20026;-64
2023/04/06 02:30:26;;;;;;;9.95;6.18;;;9.50;99.90;;;;;;5115689;28;20028;-65
2023/04/06 02:32:52;;;;;;;8.90;5.43;;;9.40;99.90;;;;;;5115603;28;20028;-64
2023/04/06 02:35:18;;;;;;;8.02;5.43;;;9.40;99.90;;;;;;5115581;28;20023;-65
2023/04/06 02:37:43;;;;;;;8.05;5.35;;;9.30;99.90;;;;;;5115448;28;20016;-65
2023/04/06 02:40:10;;;;;;;9.43;5.55;;;9.30;99.90;;;;;;5115641;28;20028;-66
2023/04/06 02:42:35;;;;;;;10.40;5.45;;;9.30;99.90;;;;;;5115525;28;20083;-66
2023/04/06 02:45:01;;;;;;;8.32;5.18;;;9.30;99.90;;;;;;5115473;28;20027;-66
2023/04/06 02:47:27;;;;;;;6.85;5.10;;;9.30;99.90;;;;;;5115307;28;20111;-66
2023/04/06 02:49:53;;;;;;;9.05;5.32;;;9.20;99.90;;;;;;5115255;28;20049;-65
2023/04/06 02:52:18;;;;;;;8.90;5.00;;;9.20;99.90;;;;;;5115358;28;20384;-66
2023/04/06 02:54:44;;;;;;;8.40;5.22;;;9.20;99.90;;;;;;5115214;28;20032;-66
2023/04/06 02:57:10;;;;;;;11.30;5.90;;;9.30;99.90;;;;;;5115376;28;20143;-66
2023/04/06 02:59:36;;;;;;;12.75;6.32;;;9.30;99.90;;;;;;5115605;28;20055;-65
2023/04/06 03:02:01;;;;;;;10.02;6.20;;;9.30;99.90;;;;;;5097039;28;20012;-66
2023/04/06 03:04:27;;;;;;;11.48;6.80;;;9.10;99.90;;;;;;5115130;28;20023;-66
2023/04/06 03:06:54;;;;;;;9.63;6.40;;;9.00;99.90;;;;;;5114536;28;20036;-66
2023/04/06 03:09:20;;;;;;;9.65;6.50;;;9.00;99.90;;;;;;5096983;28;20020;-66
2023/04/06 03:11:46;;;;;;;9.75;6.38;;;9.00;99.90;;;;;;5114838;28;20089;-66
2023/04/06 03:14:12;;;;;;;9.98;6.55;;;8.90;99.90;;;;;;5115029;28;20023;-65
2023/04/06 03:16:37;;;;;;;9.05;6.72;;;8.90;99.90;;;;;;5114982;28;20517;-65
2023/04/06 03:19:03;;;;;;;11.13;6.90;;;8.90;99.90;;;;;;5114282;28;20123;-66
2023/04/06 03:21:29;;;;;;;12.93;6.68;;;8.90;99.90;;;;;;5114313;28;20047;-66
2023/04/06 03:23:54;;;;;;;9.13;6.10;;;8.80;99.90;;;;;;5115090;28;20464;-66
2023/04/06 03:26:22;;;;;;;10.73;6.25;;;8.70;99.90;;;;;;5092349;28;20077;-64
2023/04/06 03:28:47;;;;;;;10.02;6.70;;;8.50;99.90;;;;;;5094650;28;20415;-66
2023/04/06 03:31:13;;;;;;;11.20;7.25;;;8.40;99.90;;;;;;5093095;28;20032;-66
2023/04/06 03:33:39;;;;;;;10.77;6.57;;;8.40;99.90;;;;;;5092831;28;20038;-65
2023/04/06 03:36:06;;;;;;;11.70;7.07;;;8.50;99.90;;;;;;5093926;28;20020;-66
2023/04/06 03:38:32;;;;;;;11.90;6.40;;;8.60;99.90;;;;;;5088970;28;20453;-64
2023/04/06 03:40:57;;;;;;;11.10;6.50;;;8.70;99.90;;;;;;5073848;28;20103;-66
2023/04/06 03:43:23;;;;;;;8.02;5.80;;;8.60;99.90;;;;;;5073767;28;20386;-65
2023/04/06 03:45:49;;;;;;;8.52;6.32;;;8.60;99.90;;;;;;5073970;28;20032;-66
2023/04/06 03:48:15;;;;;;;10.02;6.70;;;8.60;99.90;;;;;;5073563;28;20542;-66
2023/04/06 03:50:40;;;;;;;10.27;6.22;;;8.40;99.90;;;;;;5073324;28;20438;-65
2023/04/06 03:53:06;;;;;;;10.20;6.95;;;8.30;99.90;;;;;;5073775;28;20052;-65
2023/04/06 03:55:32;;;;;;;9.60;6.82;;;8.30;99.90;;;;;;5073139;28;20017;-66
2023/04/06 03:57:58;;;;;;;9.95;6.63;;;8.40;99.90;;;;;;5073785;28;20111;-66
2023/04/06 04:00:23;;;;;;;10.23;6.63;;;8.30;99.90;;;;;;5073427;28;20028;-65
2023/04/06 04:02:49;;;;;;;11.25;6.63;;;8.40;99.90;;;;;;5073220;28;20032;-66
2023/04/06 04:05:15;;;;;;;10.50;6.75;;;8.40;99.90;;;;;;5073159;28;20029;-67
2023/04/06 04:07:40;;;;;;;9.45;6.80;;;8.40;99.90;;;;;;5073078;28;20162;-66
2023/04/06 04:10:06;;;;;;;11.05;6.05;;;8.40;99.90;;;;;;5071661;28;20031;-65
2023/04/06 04:12:32;;;;;;;11.20;7.13;;;8.40;99.90;;;;;;5078847;28;20028;-66
2023/04/06 04:14:58;;;;;;;11.80;7.85;;;8.50;99.90;;;;;;5093917;28;20024;-66
2023/04/06 04:17:24;;;;;;;12.23;7.78;;;8.60;99.90;;;;;;5092903;28;20031;-66
2023/04/06 04:19:50;;;;;;;11.02;6.97;;;8.60;99.90;;;;;;5092992;28;20081;-66
2023/04/06 04:22:16;;;;;;;9.55;6.90;;;8.70;99.90;;;;;;5093215;28;20028;-66
2023/04/06 04:24:41;;;;;;;10.85;7.38;;;8.60;99.90;;;;;;5097568;28;20063;-65
2023/04/06 04:27:07;;;;;;;12.80;6.93;;;8.60;99.90;;;;;;5113482;28;20032;-65
2023/04/06 04:29:33;;;;;;;9.88;6.63;;;8.60;99.90;;;;;;5113083;28;20035;-67
2023/04/06 04:31:59;;;;;;;10.55;6.45;;;8.60;99.90;;;;;;5112738;28;20084;-66
2023/04/06 04:34:25;;;;;;;9.40;6.63;;;8.60;99.90;;;;;;5113470;28;20392;-65
2023/04/06 04:36:51;;;;;;;8.80;6.40;;;8.60;99.90;;;;;;5113231;28;20031;-66
2023/04/06 04:39:17;;;;;;;8.27;6.85;;;8.60;99.90;;;;;;5113104;28;20073;-65
2023/04/06 04:41:42;;;;;;;11.80;7.50;;;8.60;99.90;;;;;;5113184;28;20032;-66
2023/04/06 04:44:08;;;;;;;13.32;7.40;;;8.60;99.90;;;;;;5113120;28;20051;-66
2023/04/06 04:46:34;;;;;;;11.77;7.60;;;8.60;99.90;;;;;;5113386;28;20505;-66
2023/04/06 04:49:00;;;;;;;11.82;7.05;;;8.60;99.90;;;;;;5112633;28;20047;-66
2023/04/06 04:51:26;;;;;;;10.85;7.00;;;8.60;99.90;;;;;;5112910;28;20047;-65
2023/04/06 04:53:51;;;;;;;10.80;6.90;;;8.60;99.90;;;;;;5113059;28;20039;-66
2023/04/06 04:56:17;;;;;;;9.52;6.78;;;8.70;99.90;;;;;;5113205;28;20034;-66
2023/04/06 04:58:43;;;;;;;10.40;6.75;;;8.70;99.90;;;;;;5112982;28;20110;-66
2023/04/06 05:01:09;;;;;;;10.32;6.88;;;8.70;99.90;;;;;;5112628;28;20024;-66
2023/04/06 05:03:38;;;;;;;12.57;7.28;;;8.80;99.90;;;;;;5094531;28;20020;-66
2023/04/06 05:06:04;;;;;;;13.23;6.90;;;8.80;99.90;;;;;;5112734;28;20086;-65
2023/04/06 05:08:30;;;;;;;13.60;6.88;;;8.80;99.90;;;;;;5112360;28;20039;-66
2023/04/06 05:10:56;;;;;;;12.60;6.70;;;8.80;99.90;;;;;;5113230;28;20496;-67
2023/04/06 05:13:22;;;;;;;10.52;6.95;;;8.90;99.90;;;;;;5112635;28;20095;-67
2023/04/06 05:15:48;;;;;;;9.35;7.20;;;8.90;99.90;;;;;;5112803;28;20027;-66
2023/04/06 05:18:13;;;;;;;10.98;7.07;;;9.00;99.90;;;;;;5112573;28;20045;-66
2023/04/06 05:20:39;;;;;;;11.13;7.20;;;9.00;99.90;;;;;;5112606;28;20076;-66
2023/04/06 05:23:05;;;;;;;11.20;7.20;;;9.00;99.90;;;;;;5112540;28;20170;-66
2023/04/06 05:25:32;;;;;;;17.63;8.35;;;9.00;99.90;;;;;;5112204;28;20051;-66
2023/04/06 05:27:58;;;;;;;13.85;8.50;;;9.00;99.90;;;;;;5112804;28;20081;-67
2023/04/06 05:30:24;;;;;;;20.35;8.80;;;9.00;99.90;;;;;;5112677;28;20043;-68
2023/04/06 05:32:50;;;;;;;14.35;7.70;;;9.10;99.90;;;;;;5112158;28;20103;-68
2023/04/06 05:35:17;;;;;;;15.05;8.18;;;9.10;99.90;;;;;;5112455;28;20081;-68
2023/04/06 05:37:42;;;;;;;17.40;8.13;;;9.00;99.90;;;;;;5112352;28;20058;-68
2023/04/06 05:40:08;;;;;;;16.95;8.52;;;9.10;99.90;;;;;;5112532;28;20415;-66
2023/04/06 05:42:38;;;;;;;13.32;7.63;;;9.00;99.90;;;;;;5115051;28;20058;-68
2023/04/06 05:45:08;;;;;;;12.43;7.50;;;9.00;99.90;;;;;;5116308;28;20024;-67
2023/04/06 05:47:34;;;;;;;12.52;7.18;;;9.10;99.90;;;;;;5116606;28;20016;-68
2023/04/06 05:50:00;;;;;;;14.23;6.93;;;9.10;99.90;;;;;;5116790;28;20160;-67
2023/04/06 05:52:26;;;;;;;15.35;7.30;;;9.20;99.90;;;;;;5116447;28;20027;-67
2023/04/06 05:54:52;;;;;;;13.80;7.63;;;9.20;99.90;;;;;;5116381;28;20474;-68
2023/04/06 05:57:18;;;;;;;11.98;8.13;;;9.10;99.90;;;;;;5116770;28;20015;-68
2023/04/06 05:59:43;;;;;;;12.40;7.78;;;9.20;99.90;;;;;;5095571;28;20138;-68
2023/04/06 06:02:09;;;;;;;15.98;7.93;;;9.20;99.90;;;;;;5095731;28;20028;-68
2023/04/06 06:04:35;;;;;;;15.73;7.95;;;9.20;99.90;;;;;;5095895;28;20028;-67
2023/04/06 06:07:01;;;;;;;16.88;9.18;;;9.20;99.90;;;;;;5096052;28;20396;-67
2023/04/06 06:09:26;;;;;;;17.27;9.52;;;9.20;99.90;;;;;;5095790;28;20096;-68
2023/04/06 06:11:52;;;;;;;15.20;9.18;;;9.20;99.90;;;;;;5095819;28;20035;-67
2023/04/06 06:14:18;;;;;;;14.48;9.40;;;9.20;99.90;;;;;;5108235;28;20030;-67
2023/04/06 06:16:43;;;;;;;13.68;9.75;;;9.30;99.90;;;;;;5115883;28;20092;-67
2023/04/06 06:19:10;;;;;;;13.05;9.32;;;9.30;99.90;;;;;;5116023;28;20020;-68
2023/04/06 06:21:36;;;;;;;11.85;9.30;;;9.30;99.90;;;;;;5115872;28;20031;-67
2023/04/06 06:24:01;;;;;;;11.45;9.60;;;9.30;99.90;;;;;;5115838;28;20027;-68
2023/04/06 06:26:27;;;;;;;13.00;9.40;;;9.30;99.90;;;;;;5115464;28;20052;-67
2023/04/06 06:28:53;;;;;;;14.40;9.63;;;9.40;99.90;;;;;;5115734;28;20453;-67
2023/04/06 06:31:22;;;;;;;15.82;9.75;;;9.40;99.90;;;;;;5115794;28;20020;-67
2023/04/06 06:33:50;;;;;;;12.82;9.57;;;9.50;99.90;;;;;;5115717;28;20103;-67
2023/04/06 06:36:17;;;;;;;18.58;9.40;;;9.60;99.90;;;;;;5115557;28;20027;-67
2023/04/06 06:38:42;;;;;;;16.05;8.80;;;9.60;99.90;;;;;;5115858;28;20016;-67
2023/04/06 06:41:08;;;;;;;15.52;9.32;;;9.70;99.90;;;;;;5115492;28;20020;-65
2023/04/06 06:43:34;;;;;;;17.38;8.95;;;9.70;99.90;;;;;;5114955;28;20049;-67
2023/04/06 06:46:00;;;;;;;13.25;8.85;;;9.80;99.90;;;;;;5115496;28;20032;-67
2023/04/06 06:48:25;;;;;;;14.65;8.73;;;9.80;99.90;;;;;;5115388;28;20024;-67
2023/04/06 06:50:51;;;;;;;16.77;8.70;;;9.80;99.90;;;;;;5115700;28;20019;-67
2023/04/06 06:53:17;;;;;;;14.18;8.73;;;9.80;99.90;;;;;;5114628;28;20019;-65
2023/04/06 06:55:44;;;;;;;16.05;9.10;;;9.90;99.90;;;;;;5115370;28;20050;-68
2023/04/06 06:58:09;;;;;;;15.00;8.90;;;9.90;99.90;;;;;;5114809;28;20024;-66
2023/04/06 07:00:35;;;;;;;12.13;8.52;;;10.00;99.90;;;;;;5097139;28;20024;-67
2023/04/06 07:03:01;;;;;;;20.45;10.02;;;10.00;99.90;;;;;;5114966;28;20020;-67
2023/04/06 07:05:27;;;;;;;19.15;9.75;;;10.10;99.90;;;;;;5115533;28;20472;-68
2023/04/06 07:07:53;;;;;;;15.60;9.48;;;10.10;99.90;;;;;;5115069;28;20034;-67
2023/04/06 07:10:19;;;;;;;12.48;9.07;;;10.20;99.90;;;;;;5114931;28;20024;-67
2023/04/06 07:12:46;;;;;;;13.57;9.32;;;10.40;99.90;;;;;;5114538;28;20486;-67
2023/04/06 07:15:11;;;;;;;14.48;9.52;;;10.40;99.90;;;;;;5115051;28;20080;-67
2023/04/06 07:17:37;;;;;;;10.70;8.95;;;10.40;99.90;;;;;;5114894;28;20031;-67
2023/04/06 07:20:03;;;;;;;14.00;8.80;;;10.50;99.90;;;;;;5114807;28;20043;-67
2023/04/06 07:22:29;;;;;;;11.43;8.77;;;10.50;99.90;;;;;;5114726;28;20031;-67
2023/04/06 07:24:55;;;;;;;10.77;8.82;;;10.50;99.90;;;;;;5114315;28;20036;-68
2023/04/06 07:27:20;;;;;;;9.45;8.43;;;10.50;99.90;;;;;;5114603;28;20027;-67
2023/04/06 07:29:46;;;;;;;11.80;8.23;;;10.70;99.90;;;;;;5114751;28;20376;-67
2023/04/06 07:32:12;;;;;;;15.05;8.85;;;10.70;99.90;;;;;;5114451;28;20119;-67
2023/04/06 07:34:38;;;;;;;12.30;8.68;;;10.70;99.90;;;;;;5114448;28;20049;-67
2023/04/06 07:37:03;;;;;;;10.25;8.93;;;10.80;99.90;;;;;;5096537;28;20034;-66
2023/04/06 07:39:30;;;;;;;12.63;8.77;;;10.80;99.90;;;;;;5114280;28;20023;-67
2023/04/06 07:41:55;;;;;;;11.48;8.75;;;10.80;99.90;;;;;;5113929;28;20057;-67
2023/04/06 07:44:21;;;;;;;11.27;8.90;;;10.80;99.90;;;;;;5114320;28;20032;-68
2023/04/06 07:46:47;;;;;;;12.77;9.88;;;10.90;99.90;;;;;;5114200;28;20126;-67
2023/04/06 07:49:12;;;;;;;15.13;9.52;;;11.00;99.90;;;;;;5114564;28;20024;-67
2023/04/06 07:51:39;;;;;;;12.40;9.13;;;11.10;99.90;;;;;;5114092;28;20047;-67
2023/04/06 07:54:05;;;;;;;11.25;8.77;;;11.10;99.90;;;;;;5114067;28;20432;-68
2023/04/06 07:56:31;;;;;;;12.07;9.30;;;11.20;99.90;;;;;;5114167;28;20069;-67
2023/04/06 07:58:57;;;;;;;15.20;9.85;;;11.20;99.90;;;;;;5113891;28;20027;-67
2023/04/06 08:01:24;;;;;;;13.90;9.98;;;11.20;99.90;;;;;;5113787;28;20026;-66
2023/04/06 08:03:50;;;;;;;14.13;9.75;;;11.20;99.90;;;;;;5113781;28;20019;-67
2023/04/06 08:06:16;;;;;;;11.52;9.60;;;11.20;99.90;;;;;;5112624;28;20061;-68
2023/04/06 08:08:42;;;;;;;13.15;9.90;;;11.20;99.90;;;;;;5113717;28;20031;-67
2023/04/06 08:11:08;;;;;;;14.07;10.32;;;11.10;99.90;;;;;;5113465;28;20031;-67
2023/04/06 08:13:35;;;;;;;13.95;10.00;;;11.10;99.90;;;;;;5113966;28;20020;-67
2023/04/06 08:16:00;;;;;;;12.90;9.57;;;11.20;99.90;;;;;;5113616;28;20394;-68
2023/04/06 08:18:26;;;;;;;13.70;9.93;;;11.20;99.90;;;;;;5113634;28;20020;-67
2023/04/06 08:20:52;;;;;;;14.30;9.60;;;11.20;99.90;;;;;;5113533;28;20469;-67
2023/04/06 08:23:17;;;;;;;12.07;9.60;;;11.30;99.90;;;;;;5113563;28;20020;-68
2023/04/06 08:25:43;;;;;;;12.73;9.57;;;11.30;99.90;;;;;;5113063;28;20040;-67
2023/04/06 08:28:09;;;;;;;10.75;8.95;;;11.40;99.90;;;;;;5113467;28;20153;-67
2023/04/06 08:30:35;;;;;;;11.93;9.55;;;11.40;99.90;;;;;;5113392;28;20031;-67
2023/04/06 08:33:01;;;;;;;15.05;9.07;;;11.40;99.90;;;;;;5113183;28;20032;-64
2023/04/06 08:35:27;;;;;;;11.52;8.88;;;11.60;99.90;;;;;;5113420;28;20023;-67
2023/04/06 08:37:53;;;;;;;13.48;8.98;;;11.70;99.90;;;;;;5113092;28;20035;-66
2023/04/06 08:40:19;;;;;;;13.52;8.95;;;11.80;99.90;;;;;;5112980;28;20057;-66
2023/04/06 08:42:59;;;;;;;18.65;9.57;;;11.90;99.90;;;;;;5112900;28;20507;-66
2023/04/06 08:45:25;;;;;;;13.88;9.40;;;12.00;99.90;;;;;;5113204;28;20487;-67
2023/04/06 08:47:55;;;;;;;15.32;8.90;;;12.00;99.90;;;;;;5113089;28;20111;-66
2023/04/06 08:50:21;;;;;;;23.45;9.02;;;12.20;99.90;;;;;;5112924;28;20126;-66
2023/04/06 08:52:48;;;;;;;15.25;9.20;;;12.30;99.90;;;;;;5112873;28;20099;-67
2023/04/06 08:55:15;;;;;;;15.07;8.90;;;12.40;99.90;;;;;;5112512;28;20051;-66
2023/04/06 08:57:41;;;;;;;13.48;9.15;;;12.40;99.90;;;;;;5113169;28;20069;-66
2023/04/06 09:00:10;;;;;;;12.43;8.48;;;12.40;99.90;;;;;;5112842;28;20046;-67
2023/04/06 09:02:40;;;;;;;17.52;8.20;;;12.50;99.90;;;;;;5112817;28;20031;-67
2023/04/06 09:05:08;;;;;;;13.13;8.73;;;12.70;99.90;;;;;;5112766;28;20024;-67
2023/04/06 09:07:33;;;;;;;12.18;8.05;;;12.70;99.90;;;;;;5094771;28;20027;-66
2023/04/06 09:09:59;;;;;;;9.75;7.90;;;12.70;99.90;;;;;;5112785;28;20028;-66
2023/04/06 09:12:27;;;;;;;8.70;7.25;;;12.80;99.90;;;;;;5112646;28;20136;-66
2023/04/06 09:14:54;;;;;;;8.80;6.80;;;12.80;99.90;;;;;;5112520;28;20460;-66
2023/04/06 09:17:21;;;;;;;10.77;7.75;;;12.80;99.90;;;;;;5112263;28;20396;-66
2023/04/06 09:19:48;;;;;;;9.77;7.22;;;12.80;99.90;;;;;;5112683;28;20023;-67
2023/04/06 09:22:14;;;;;;;12.77;8.32;;;12.70;99.90;;;;;;5112334;28;20035;-67
2023/04/06 09:24:53;;;;;;;10.73;7.82;;;12.70;99.90;;;;;;5111871;28;20124;-66
2023/04/06 09:27:34;;;;;;;10.73;6.68;;;12.80;99.90;;;;;;5112402;28;20058;-67
2023/04/06 09:30:09;;;;;;;10.65;7.00;;;13.10;99.90;;;;;;5112410;28;20039;-67
2023/04/06 09:32:52;;;;;;;7.60;6.55;;;13.10;99.90;;;;;;5112452;28;20148;-66
2023/04/06 09:35:22;;;;;;;11.00;7.33;;;13.20;99.90;;;;;;5112270;28;20027;-66
2023/04/06 09:37:50;;;;;;;10.43;7.32;;;13.10;99.90;;;;;;5112293;28;20044;-68
2023/04/06 09:40:17;;;;;;;11.63;7.10;;;13.20;99.90;;;;;;5112071;28;20061;-69
2023/04/06 09:42:46;;;;;;;16.65;7.07;;;13.30;99.90;;;;;;5112522;28;20404;-69
2023/04/06 09:45:12;;;;;;;11.20;7.18;;;13.40;99.90;;;;;;5111850;28;20055;-68
2023/04/06 09:47:40;;;;;;;9.10;7.28;;;13.40;99.90;;;;;;5112241;28;20054;-69
2023/04/06 09:50:08;;;;;;;11.25;7.45;;;13.30;99.90;;;;;;5112400;28;20392;-69
2023/04/06 09:52:51;;;;;;;9.82;7.75;;;13.30;99.90;;;;;;5111818;28;20024;-70
2023/04/06 09:55:29;;;;;;;10.02;6.82;;;13.30;99.90;;;;;;5112236;28;20030;-71
2023/04/06 09:58:19;;;;;;;10.32;7.38;;;13.20;99.90;;;;;;5112162;28;20027;-71
2023/04/06 10:00:59;;;;;;;10.98;7.93;;;13.30;99.90;;;;;;5112266;28;20093;-70
2023/04/06 10:03:44;;;;;;;12.50;8.20;;;13.40;99.90;;;;;;5111855;28;20500;-70
2023/04/06 10:06:12;;;;;;;10.10;7.90;;;13.50;99.90;;;;;;5111834;28;20081;-71
2023/04/06 10:08:41;;;;;;;12.63;8.20;;;13.60;99.90;;;;;;5112144;28;20099;-71
2023/04/06 10:11:08;;;;;;;12.30;8.43;;;13.60;99.90;;;;;;5112370;28;20024;-71
2023/04/06 10:13:34;;;;;;;14.30;7.18;;;13.80;99.90;;;;;;5112150;28;20015;-71
2023/04/06 10:16:03;;;;;;;10.95;6.57;;;13.90;99.90;;;;;;5111978;28;20024;-71
2023/04/06 10:18:29;;;;;;;19.30;9.63;;;13.80;99.90;;;;;;5112004;28;20034;-71
2023/04/06 10:21:07;;;;;;;12.50;6.57;;;13.90;99.90;;;;;;5111750;28;20028;-72
2023/04/06 10:23:44;;;;;;;11.88;7.10;;;14.00;99.90;;;;;;5111879;28;20476;-71
2023/04/06 10:26:16;;;;;;;11.48;6.30;;;14.20;99.90;;;;;;5111728;28;20056;-71
2023/04/06 10:28:43;;;;;;;13.20;7.40;;;14.00;99.90;;;;;;5113120;28;20023;-71
2023/04/06 10:31:09;;;;;;;15.40;5.97;;;14.00;99.90;;;;;;5115676;28;20027;-71
2023/04/06 10:33:35;;;;;;;11.32;5.47;;;14.30;99.90;;;;;;5115687;28;20023;-72
2023/04/06 10:36:15;;;;;;;8.57;4.65;;;14.40;99.90;;;;;;5115182;28;20503;-69
2023/04/06 10:38:41;;;;;;;10.13;4.78;;;14.50;99.90;;;;;;5115912;28;20072;-71
2023/04/06 10:41:09;;;;;;;8.73;4.65;;;14.50;99.90;;;;;;5115432;28;20057;-72
2023/04/06 10:43:36;;;;;;;8.50;4.35;;;14.60;99.90;;;;;;5115305;28;20467;-72
2023/04/06 10:46:03;;;;;;;8.18;4.40;;;14.50;99.90;;;;;;5115364;28;20239;-70
2023/04/06 10:48:47;;;;;;;6.22;3.97;;;14.60;99.90;;;;;;5115392;28;20023;-71
2023/04/06 10:51:15;;;;;;;8.20;4.43;;;14.40;99.90;;;;;;5115184;28;20475;-69
2023/04/06 10:53:48;;;;;;;7.00;4.60;;;14.50;99.90;;;;;;5115036;28;20484;-69
2023/04/06 10:56:20;;;;;;;6.78;3.92;;;14.50;99.90;;;;;;5115361;28;20035;-69
2023/04/06 10:58:52;;;;;;;7.40;3.95;;;14.60;99.90;;;;;;5114577;28;20416;-71
2023/04/06 11:01:19;;;;;;;6.15;4.50;;;14.70;99.90;;;;;;5096572;28;20032;-69
2023/04/06 11:03:46;;;;;;;7.03;3.45;;;14.80;99.90;;;;;;5114551;28;20012;-70
2023/04/06 11:06:21;;;;;;;4.35;3.17;;;15.10;99.90;;;;;;5114288;28;20441;-69
2023/04/06 11:08:47;;;;;;;5.22;3.30;;;14.80;99.90;;;;;;5115172;28;20486;-69
2023/04/06 11:11:15;;;;;;;6.28;3.45;;;15.00;99.90;;;;;;5114666;28;20033;-71
2023/04/06 11:13:41;;;;;;;5.78;3.45;;;15.10;99.90;;;;;;5114947;28;20023;-75
2023/04/06 11:16:11;;;;;;;5.28;3.25;;;15.30;99.90;;;;;;5114559;28;20019;-72
2023/04/06 11:18:37;;;;;;;9.60;3.15;;;15.40;99.90;;;;;;5114720;28;20024;-73
2023/04/06 11:21:03;;;;;;;6.70;3.22;;;15.40;99.90;;;;;;5114842;28;20538;-72
2023/04/06 11:23:29;;;;;;;7.47;3.28;;;15.40;99.90;;;;;;5114841;28;20396;-72
2023/04/06 11:25:54;;;;;;;5.35;2.90;;;15.30;99.90;;;;;;5114553;28;20044;-72
2023/04/06 11:28:20;;;;;;;5.72;2.53;;;15.50;99.90;;;;;;5114500;28;20034;-71
2023/04/06 11:30:47;;;;;;;6.45;3.00;;;15.40;99.90;;;;;;5114479;28;20167;-72
2023/04/06 11:33:21;;;;;;;3.72;2.28;;;15.30;99.90;;;;;;5114105;28;20028;-72
2023/04/06 11:35:47;;;;;;;3.70;2.55;;;15.40;99.90;;;;;;5114441;28;20023;-72
2023/04/06 11:38:12;;;;;;;7.63;3.15;;;15.40;99.90;;;;;;5114767;28;20035;-71
2023/04/06 11:40:38;;;;;;;4.07;2.63;;;15.60;99.90;;;;;;5113955;28;20113;-72
2023/04/06 11:43:06;;;;;;;3.83;2.67;;;15.70;99.90;;;;;;5114294;28;20031;-72
2023/04/06 11:45:43;;;;;;;4.38;2.65;;;15.80;99.90;;;;;;5114135;28;20491;-71
2023/04/06 11:48:18;;;;;;;4.97;3.28;;;15.70;99.90;;;;;;5113789;28;20388;-72
2023/04/06 11:50:47;;;;;;;6.03;2.95;;;15.80;99.90;;;;;;5114155;28;20023;-71
2023/04/06 11:53:13;;;;;;;6.25;2.90;;;15.90;99.90;;;;;;5114156;28;20031;-72
2023/04/06 11:55:39;;;;;;;4.55;3.13;;;16.00;99.90;;;;;;5114154;28;20035;-71
2023/04/06 11:58:05;;;;;;;5.38;2.92;;;15.80;99.90;;;;;;5114269;28;20027;-72
2023/04/06 12:00:34;;;;;;;4.95;2.88;;;15.90;99.90;;;;;;5113923;28;20492;-71
2023/04/06 12:03:00;;;;;;;12.23;3.50;;;16.00;99.90;;;;;;5113467;28;20399;-71
2023/04/06 12:05:26;;;;;;;11.70;3.67;;;16.20;99.90;;;;;;5114071;28;20028;-71
2023/04/06 12:07:52;;;;;;;9.18;3.90;;;16.20;99.90;;;;;;5114382;28;20556;-72
2023/04/06 12:10:17;;;;;;;6.97;3.40;;;16.10;99.90;;;;;;5113787;28;20050;-72
2023/04/06 12:12:43;;;;;;;5.47;3.25;;;16.10;99.90;;;;;;5113769;28;20388;-72
2023/04/06 12:15:09;;;;;;;6.93;3.13;;;16.10;99.90;;;;;;5113559;28;20349;-72
2023/04/06 12:17:35;;;;;;;7.05;3.15;;;16.20;99.90;;;;;;5113335;28;20058;-72
2023/04/06 12:20:02;;;;;;;7.05;2.65;;;16.30;99.90;;;;;;5113920;28;20098;-72
2023/04/06 12:22:28;;;;;;;5.63;3.20;;;16.30;99.90;;;;;;5113489;28;20032;-72
2023/04/06 12:24:54;;;;;;;7.50;2.90;;;16.40;99.90;;;;;;5113354;28;20044;-70
2023/04/06 12:27:20;;;;;;;8.13;3.45;;;16.40;99.90;;;;;;5113455;28;20047;-72
2023/04/06 12:29:47;;;;;;;7.80;3.75;;;16.40;99.90;;;;;;5113253;28;20023;-71
2023/04/06 12:32:12;;;;;;;8.82;3.55;;;16.40;99.90;;;;;;5112870;28;20510;-72
2023/04/06 12:34:38;;;;;;;7.35;3.75;;;16.40;99.90;;;;;;5113362;28;20020;-72
2023/04/06 12:37:04;;;;;;;7.88;3.58;;;16.50;99.90;;;;;;5113232;28;20035;-71
2023/04/06 12:39:30;;;;;;;10.90;3.88;;;16.40;99.90;;;;;;5113138;28;20030;-72
2023/04/06 12:41:57;;;;;;;6.40;3.20;;;16.60;99.90;;;;;;5113024;28;20396;-70
2023/04/06 12:44:23;;;;;;;6.95;3.28;;;16.60;99.90;;;;;;5112995;28;20104;-72